Time;durP1;ratioP1;P1;durP2;ratioP2;P2;SDS_P1;SDS_P2;PMS_P1;PMS_P2;Temp;Humidity;BMP_temperature;BMP_pressure;BME280_temperature;BME280_humidity;BME280_pressure;Samples;Min_cycle;Max_cycle;Signal;HPM_P1;HPM_P2
2023/10/09 00:01:01;;;;;;;18.45;8.95;;;;;;;13.68;100.00;101946.28;4948361;29;20050;-80
2023/10/09 00:03:27;;;;;;;17.35;8.88;;;;;;;13.68;100.00;101951.53;4945411;28;20059;-80
2023/10/09 00:05:53;;;;;;;13.57;8.23;;;;;;;13.68;100.00;101943.69;4946932;29;20028;-80
2023/10/09 00:08:26;;;;;;;12.73;8.10;;;;;;;13.69;100.00;101950.63;4946289;28;20096;-80
2023/10/09 00:10:54;;;;;;;14.10;8.63;;;;;;;13.68;100.00;101943.69;4952858;29;20019;-80
2023/10/09 00:13:27;;;;;;;12.23;7.88;;;;;;;13.69;100.00;101942.78;4947386;28;20030;-80
2023/10/09 00:15:57;;;;;;;12.98;8.35;;;;;;;13.70;100.00;101936.66;4952698;29;20368;-80
2023/10/09 00:18:28;;;;;;;15.45;8.65;;;;;;;13.71;100.00;101938.38;4953900;29;20402;-80
2023/10/09 00:20:55;;;;;;;16.90;9.45;;;;;;;13.75;100.00;101942.66;4954066;29;20487;-80
2023/10/09 00:23:22;;;;;;;16.27;9.50;;;;;;;13.76;100.00;101927.81;4953356;28;20039;-80
2023/10/09 00:26:08;;;;;;;14.65;9.10;;;;;;;13.76;100.00;101917.34;4952595;29;20147;-80
2023/10/09 00:28:34;;;;;;;14.05;8.25;;;;;;;13.76;100.00;101915.63;4945416;29;20034;-80
2023/10/09 00:31:04;;;;;;;15.88;9.15;;;;;;;13.75;100.00;101916.50;4948149;28;20490;-80
2023/10/09 00:33:29;;;;;;;14.13;8.20;;;;;;;13.76;100.00;101904.28;4943615;29;20069;-80
2023/10/09 00:35:55;;;;;;;14.80;8.70;;;;;;;13.76;100.00;101904.28;4953536;29;20031;-80
2023/10/09 00:40:47;;;;;;;16.33;9.98;;;;;;;13.80;100.00;101906.81;4945472;29;20039;-80
2023/10/09 00:43:15;;;;;;;13.40;8.40;;;;;;;13.83;100.00;101910.25;4944918;28;20027;-80
2023/10/09 00:45:44;;;;;;;16.15;9.07;;;;;;;13.85;100.00;101898.88;4953660;29;20034;-80
2023/10/09 00:48:09;;;;;;;14.77;8.77;;;;;;;13.88;100.00;101900.53;4954037;28;20106;-80
2023/10/09 00:50:36;;;;;;;13.80;8.55;;;;;;;13.90;100.00;101902.25;4938592;29;20118;-80
2023/10/09 00:53:04;;;;;;;14.57;8.80;;;;;;;13.91;100.00;101908.31;4942388;29;20403;-80
2023/10/09 00:58:12;;;;;;;13.38;8.98;;;;;;;13.96;100.00;101912.56;4952874;28;20031;-81
2023/10/09 01:03:22;;;;;;;;;;;;;;;14.04;100.00;101912.38;4951756;29;20047;-80
2023/10/09 01:11:18;;;;;;;15.68;8.48;;;;;;;14.10;100.00;101914.84;4938573;29;20126;-80
2023/10/09 01:16:17;;;;;;;14.13;8.57;;;;;;;14.14;100.00;101912.19;4941211;28;20039;-80
2023/10/09 01:18:49;;;;;;;17.83;9.52;;;;;;;14.14;100.00;101902.56;4935453;29;20388;-80
2023/10/09 01:21:14;;;;;;;15.85;8.63;;;;;;;14.16;100.00;101897.31;4952116;29;20027;-80
2023/10/09 01:26:39;;;;;;;17.35;9.05;;;;;;;14.17;100.00;101904.25;4952069;29;20110;-80
2023/10/09 01:29:15;;;;;;;17.13;8.77;;;;;;;14.19;100.00;101907.66;4944707;28;20038;-80
2023/10/09 01:32:00;;;;;;;13.40;8.88;;;;;;;14.19;100.00;101907.66;4949226;29;20051;-80
2023/10/09 01:37:15;;;;;;;14.15;8.30;;;;;;;14.20;100.00;101912.00;4953426;28;20042;-80
2023/10/09 01:39:41;;;;;;;;;;;;;;;14.23;100.00;101909.31;4954843;28;20505;-80
2023/10/09 01:42:06;;;;;;;12.98;8.05;;;;;;;14.21;100.00;101911.13;4954708;28;19953;-80
2023/10/09 01:44:35;;;;;;;15.95;8.13;;;;;;;14.22;100.00;101902.38;4954861;28;20063;-81
2023/10/09 01:47:07;;;;;;;12.63;8.30;;;;;;;14.21;100.00;101900.66;4954163;28;20032;-80
2023/10/09 01:49:35;;;;;;;16.42;8.35;;;;;;;14.22;100.00;101902.38;4953768;28;20542;-80
2023/10/09 01:52:03;;;;;;;14.43;8.13;;;;;;;14.21;100.00;101900.66;4952609;28;20038;-80
2023/10/09 01:54:36;;;;;;;12.52;7.97;;;;;;;14.22;100.00;101899.75;4952808;28;20040;-80
2023/10/09 01:57:07;;;;;;;12.70;7.82;;;;;;;14.21;100.00;101896.28;4954160;29;20142;-80
2023/10/09 01:59:36;;;;;;;13.68;8.18;;;;;;;14.22;100.00;101897.13;4943993;28;20106;-80
2023/10/09 02:02:11;;;;;;;13.35;8.57;;;;;;;14.22;100.00;101895.41;4950286;29;20075;-80
2023/10/09 02:04:39;;;;;;;12.27;7.85;;;;;;;14.24;100.00;101895.34;4953798;28;20141;-80
2023/10/09 02:07:07;;;;;;;13.98;8.55;;;;;;;14.25;100.00;101887.47;4943946;29;20118;-80
2023/10/09 02:09:34;;;;;;;15.90;8.50;;;;;;;14.24;100.00;101890.97;4947006;29;20077;-81
2023/10/09 02:12:00;;;;;;;15.65;8.52;;;;;;;14.25;100.00;101889.22;4947075;28;20078;-80
2023/10/09 02:14:26;;;;;;;15.80;8.93;;;;;;;14.26;100.00;101896.16;4952934;29;20019;-80
2023/10/09 02:19:38;;;;;;;15.23;8.70;;;;;;;14.28;100.00;101894.38;4953348;29;20046;-80
2023/10/09 02:22:13;;;;;;;15.82;8.65;;;;;;;14.29;100.00;101885.63;4952370;29;20049;-80
2023/10/09 02:24:50;;;;;;;15.50;8.70;;;;;;;14.30;100.00;101889.97;4943925;28;20042;-80
2023/10/09 02:30:15;;;;;;;16.70;7.95;;;;;;;14.32;100.00;101876.84;4949589;29;20084;-80
2023/10/09 02:32:42;;;;;;;12.80;8.45;;;;;;;14.32;100.00;101876.84;4953156;28;20019;-80
2023/10/09 02:35:20;;;;;;;14.02;9.02;;;;;;;14.32;100.00;101876.84;4953535;28;20182;-80
2023/10/09 02:37:46;;;;;;;13.30;8.18;;;;;;;14.32;100.00;101866.34;4948174;29;20078;-80
2023/10/09 02:40:22;;;;;;;14.00;8.45;;;;;;;14.33;100.00;101863.72;4957221;29;20093;-80
2023/10/09 02:42:49;;;;;;;15.32;8.15;;;;;;;14.34;100.00;101859.34;4957148;28;20035;-80
2023/10/09 02:45:16;;;;;;;12.57;8.15;;;;;;;14.33;100.00;101855.88;4954715;29;20035;-80
2023/10/09 02:47:42;;;;;;;13.32;8.35;;;;;;;14.35;100.00;101858.44;4943863;29;20051;-80
2023/10/09 02:50:19;;;;;;;14.30;8.57;;;;;;;14.36;100.00;101854.91;4939166;29;20039;-80
2023/10/09 02:52:46;;;;;;;13.45;8.25;;;;;;;14.35;100.00;101843.56;4954557;28;20039;-80
2023/10/09 02:55:23;;;;;;;12.88;8.18;;;;;;;14.35;100.00;101840.97;4955402;29;20078;-80
2023/10/09 02:57:51;;;;;;;14.30;8.32;;;;;;;14.35;100.00;101846.19;4949911;29;20030;-80
2023/10/09 03:00:29;;;;;;;16.35;8.80;;;;;;;14.34;100.00;101847.13;4955890;28;20026;-80
2023/10/09 03:02:58;;;;;;;16.55;8.43;;;;;;;14.35;100.00;101851.44;4949784;28;20071;-80
2023/10/09 03:05:23;;;;;;;16.23;9.07;;;;;;;14.36;100.00;101847.06;4956371;28;20027;-80
2023/10/09 03:07:51;;;;;;;18.13;9.15;;;;;;;14.38;100.00;101851.34;4949805;28;20027;-80
2023/10/09 03:10:17;;;;;;;20.48;8.73;;;;;;;14.38;100.00;101851.34;4954110;29;20027;-80
2023/10/09 03:12:43;;;;;;;15.70;8.95;;;;;;;14.39;100.00;101853.06;4947046;29;20038;-81
2023/10/09 03:15:09;;;;;;;18.05;8.85;;;;;;;14.40;100.00;101853.94;4948744;28;20034;-80
2023/10/09 03:17:34;;;;;;;16.80;8.68;;;;;;;14.40;100.00;101848.72;4955711;28;20031;-80
2023/10/09 03:20:11;;;;;;;14.98;8.52;;;;;;;14.39;100.00;101840.00;4956743;28;20035;-80
2023/10/09 03:22:37;;;;;;;15.23;9.00;;;;;;;14.40;100.00;101833.84;4956660;28;20035;-80
2023/10/09 03:25:02;;;;;;;12.90;8.13;;;;;;;14.40;100.00;101828.63;4956422;28;20034;-80
2023/10/09 03:27:28;;;;;;;13.90;8.15;;;;;;;14.39;100.00;101834.75;4956093;29;20506;-80
2023/10/09 03:29:53;;;;;;;15.00;8.45;;;;;;;14.40;100.00;101828.63;4938500;28;20051;-80
2023/10/09 03:32:19;;;;;;;15.98;8.75;;;;;;;14.41;100.00;101826.88;4940786;28;20054;-80
2023/10/09 03:34:44;;;;;;;16.08;9.15;;;;;;;14.41;100.00;101827.72;4955412;29;20019;-80
2023/10/09 03:37:21;;;;;;;13.65;8.43;;;;;;;14.41;100.00;101825.09;4956536;28;20041;-80
2023/10/09 03:39:47;;;;;;;14.65;8.20;;;;;;;14.42;100.00;101824.19;4955968;29;20035;-80
2023/10/09 03:42:19;;;;;;;15.10;8.48;;;;;;;14.42;100.00;101811.13;4953967;29;20108;-80
2023/10/09 03:44:48;;;;;;;12.65;8.43;;;;;;;14.40;100.00;101818.16;4956354;29;20467;-80
2023/10/09 03:47:16;;;;;;;14.93;8.40;;;;;;;14.41;100.00;101813.78;4953960;28;20394;-80
2023/10/09 03:49:43;;;;;;;12.13;7.90;;;;;;;14.41;100.00;101808.56;4955198;29;20035;-80
2023/10/09 03:52:09;;;;;;;14.55;7.75;;;;;;;14.39;100.00;101812.97;4955630;28;20027;-80
2023/10/09 03:54:35;;;;;;;17.83;8.02;;;;;;;14.40;100.00;101820.75;4955770;28;20098;-80
2023/10/09 03:57:00;;;;;;;20.42;8.80;;;;;;;14.41;100.00;101822.47;4954142;28;20510;-80
2023/10/09 03:59:32;;;;;;;18.80;8.35;;;;;;;14.41;100.00;101817.25;4956070;28;20523;-80
2023/10/09 04:01:58;;;;;;;17.55;8.43;;;;;;;14.44;100.00;101818.06;4956039;29;20046;-80
2023/10/09 04:04:24;;;;;;;17.20;8.73;;;;;;;14.45;100.00;101807.53;4936684;29;20036;-80
2023/10/09 04:06:51;;;;;;;17.25;8.45;;;;;;;14.45;100.00;101807.53;4945201;29;20428;-80
2023/10/09 04:14:36;;;;;;;17.77;8.50;;;;;;;14.47;100.00;101802.28;4950653;28;20041;-79
2023/10/09 04:17:06;;;;;;;17.95;9.55;;;;;;;14.47;100.00;101792.66;4941216;28;20031;-80
2023/10/09 04:19:38;;;;;;;15.35;8.73;;;;;;;14.48;100.00;101790.91;4945545;29;20462;-80
2023/10/09 04:22:07;;;;;;;15.40;8.82;;;;;;;14.47;100.00;101786.56;4939900;28;21480;-80
2023/10/09 04:24:41;;;;;;;14.95;8.10;;;;;;;14.47;100.00;101786.56;4953478;28;20023;-81
2023/10/09 04:27:08;;;;;;;16.10;8.70;;;;;;;14.48;100.00;101783.06;4940636;29;20059;-81
2023/10/09 04:29:46;;;;;;;14.23;8.45;;;;;;;14.48;100.00;101793.53;4955327;28;20078;-80
2023/10/09 04:32:16;;;;;;;14.00;8.43;;;;;;;14.50;100.00;101791.75;4948148;28;20062;-80
2023/10/09 04:34:56;;;;;;;17.42;8.80;;;;;;;14.49;100.00;101787.41;4941566;29;20468;-81
2023/10/09 04:37:37;;;;;;;13.33;7.97;;;;;;;14.51;100.00;101798.69;4952385;29;20082;-81
2023/10/09 04:40:14;;;;;;;16.13;7.72;;;;;;;14.53;100.00;101820.44;4951265;28;20283;-81
2023/10/09 04:43:06;;;;;;;12.88;7.75;;;;;;;14.53;100.00;101833.53;4955123;28;20023;-80
2023/10/09 04:48:32;;;;;;;13.57;7.97;;;;;;;14.53;100.00;101839.63;4948570;29;20050;-81
2023/10/09 04:53:47;;;;;;;13.23;8.00;;;;;;;14.55;100.00;101844.81;4954687;29;20086;-80
2023/10/09 04:56:15;;;;;;;15.15;8.38;;;;;;;14.54;100.00;101843.97;4947608;28;20471;-80
2023/10/09 04:58:41;;;;;;;16.10;7.78;;;;;;;14.53;100.00;101854.47;4950890;28;20459;-81
2023/10/09 05:01:13;;;;;;;15.30;8.35;;;;;;;14.54;100.00;101853.56;4947112;28;20043;-80
2023/10/09 05:08:49;;;;;;;13.80;7.90;;;;;;;14.55;100.00;101848.31;4939750;29;20042;-80
2023/10/09 05:11:34;;;;;;;19.60;8.35;;;;;;;14.54;100.00;101846.59;4954460;28;20027;-80
2023/10/09 05:14:11;;;;;;;14.25;8.10;;;;;;;14.54;100.00;101835.25;4954777;28;20483;-80
2023/10/09 05:16:37;;;;;;;14.60;8.27;;;;;;;14.54;100.00;101832.63;4952561;29;20023;-80
2023/10/09 05:19:06;;;;;;;13.88;8.25;;;;;;;14.54;100.00;101832.63;4951154;28;20032;-80
2023/10/09 05:21:44;;;;;;;12.10;8.13;;;;;;;14.51;100.00;101817.88;4948149;29;20043;-80
2023/10/09 05:26:51;;;;;;;14.82;8.75;;;;;;;14.49;100.00;101832.75;4937060;29;20134;-80
2023/10/09 05:32:15;;;;;;;17.58;8.38;;;;;;;14.50;100.00;101849.34;4935381;29;20047;-80
2023/10/09 05:37:42;;;;;;;14.60;8.18;;;;;;;14.50;100.00;101860.66;4945601;28;20082;-80
2023/10/09 05:42:44;;;;;;;14.07;8.32;;;;;;;14.51;100.00;101861.53;4944814;29;20031;-80
2023/10/09 05:50:37;;;;;;;14.27;9.10;;;;;;;14.51;100.00;101865.00;4941405;29;20039;-81
2023/10/09 05:53:09;;;;;;;15.10;9.10;;;;;;;14.51;100.00;101862.38;4935158;29;20020;-80
2023/10/09 06:02:17;;;;;;;14.68;7.95;;;;;;;14.50;100.00;101875.53;4942250;29;20517;-80
2023/10/09 06:04:12;;;;;;;17.05;8.75;;;;;;;14.50;100.00;101888.63;4949053;28;20142;-80
2023/10/09 06:06:44;;;;;;;14.85;8.25;;;;;;;14.49;100.00;101894.75;4942772;29;20035;-80
2023/10/09 06:11:39;;;;;;;16.42;9.10;;;;;;;14.52;100.00;101890.28;4944699;28;20036;-81
2023/10/09 06:14:12;;;;;;;13.65;8.50;;;;;;;14.53;100.00;101888.50;4942377;28;20023;-80
2023/10/09 06:16:42;;;;;;;16.42;9.25;;;;;;;14.53;100.00;101878.03;4951682;29;20038;-80
2023/10/09 06:24:25;;;;;;;15.48;8.73;;;;;;;14.55;100.00;101886.72;4947457;29;20090;-81
2023/10/09 06:29:50;;;;;;;13.90;9.27;;;;;;;14.54;100.00;101862.31;4953726;28;20479;-80
2023/10/09 06:34:46;;;;;;;18.20;9.05;;;;;;;14.55;100.00;101895.44;4943395;29;20039;-80
2023/10/09 06:42:43;;;;;;;15.70;9.52;;;;;;;14.59;100.00;101896.22;4939726;29;20039;-80
2023/10/09 06:45:16;;;;;;;16.08;9.98;;;;;;;14.61;100.00;101891.81;4951425;29;20036;-80
2023/10/09 06:47:42;;;;;;;19.50;9.48;;;;;;;14.61;100.00;101889.19;4944115;29;20082;-80
2023/10/09 06:53:18;;;;;;;14.65;9.70;;;;;;;14.62;100.00;101876.94;4947915;28;20549;-80
2023/10/09 06:55:49;;;;;;;17.60;9.27;;;;;;;14.61;100.00;101868.25;4934296;29;20038;-80
2023/10/09 06:58:28;;;;;;;14.88;8.93;;;;;;;14.62;100.00;101875.19;4952236;28;20034;-80
2023/10/09 07:03:51;;;;;;;15.25;9.60;;;;;;;14.63;100.00;101858.59;4940621;29;20505;-81
2023/10/09 07:06:23;;;;;;;19.13;9.75;;;;;;;14.66;100.00;101875.97;4939569;28;20086;-81
2023/10/09 07:14:32;;;;;;;17.73;9.70;;;;;;;14.74;100.00;101852.22;4937657;28;20023;-81
2023/10/09 07:16:57;;;;;;;18.27;9.88;;;;;;;14.76;100.00;101839.94;4943347;29;20376;-80
2023/10/09 07:24:58;;;;;;;15.70;9.60;;;;;;;14.79;100.00;101835.47;4956836;28;20070;-80
2023/10/09 07:38:20;;;;;;;17.00;9.80;;;;;;;14.96;100.00;101897.03;4955933;29;20035;-81
2023/10/09 07:41:33;;;;;;;21.15;9.93;;;;;;;14.96;100.00;101911.00;4956149;28;20027;-80
2023/10/09 07:46:30;;;;;;;16.77;9.55;;;;;;;15.00;100.00;101928.38;4937556;29;20039;-81
2023/10/09 07:49:09;;;;;;;17.17;10.07;;;;;;;15.02;100.00;101920.47;4938390;28;20031;-81
2023/10/09 07:51:38;;;;;;;23.20;10.32;;;;;;;15.01;100.00;101932.72;4955295;29;20030;-81
2023/10/09 07:54:07;;;;;;;18.80;10.07;;;;;;;15.03;100.00;101937.91;4956165;28;20015;-81
2023/10/09 07:56:38;;;;;;;22.92;10.68;;;;;;;15.06;100.00;101921.22;4956055;28;20034;-81
2023/10/09 07:59:10;;;;;;;21.37;9.93;;;;;;;15.07;100.00;101894.13;4942359;28;20043;-81
2023/10/09 08:01:36;;;;;;;16.10;9.65;;;;;;;15.06;100.00;101884.53;4955220;29;20027;-81
2023/10/09 08:04:05;;;;;;;15.63;9.65;;;;;;;15.05;100.00;101872.34;4952235;28;20102;-81
2023/10/09 08:06:39;;;;;;;16.27;10.30;;;;;;;15.05;100.00;101873.22;4944048;28;20031;-81
2023/10/09 08:19:53;;;;;;;18.55;9.32;;;;;;;15.16;100.00;101892.09;4937254;29;20046;-81
2023/10/09 08:24:57;;;;;;;17.33;10.27;;;;;;;15.22;100.00;101859.59;4936563;29;20039;-81
2023/10/09 08:30:44;;;;;;;19.98;9.88;;;;;;;15.27;100.00;101860.34;4955502;29;20051;-80
2023/10/09 08:33:03;;;;;;;17.40;10.60;;;;;;;15.28;100.00;101848.94;4945934;28;20095;-81
2023/10/09 08:35:35;;;;;;;17.17;10.25;;;;;;;15.29;100.00;101855.91;4937892;28;20028;-81
2023/10/09 08:38:10;;;;;;;16.33;10.07;;;;;;;15.33;100.00;101854.94;4951950;29;20031;-81
2023/10/09 08:40:38;;;;;;;16.48;9.95;;;;;;;15.37;100.00;101852.22;4955031;28;20049;-80
2023/10/09 08:43:21;;;;;;;17.77;10.45;;;;;;;15.43;100.00;101849.41;4954195;28;20034;-81
2023/10/09 08:45:53;;;;;;;17.73;10.38;;;;;;;15.47;100.00;101856.28;4955126;28;20043;-81
2023/10/09 08:48:21;;;;;;;17.20;10.30;;;;;;;15.51;100.00;101850.03;4953953;29;20030;-81
2023/10/09 08:50:54;;;;;;;21.48;10.70;;;;;;;15.56;100.00;101855.13;4943485;28;20023;-81
2023/10/09 08:53:20;;;;;;;17.20;10.48;;;;;;;15.60;100.00;101864.63;4953530;28;20027;-81
2023/10/09 08:55:46;;;;;;;24.80;11.43;;;;;;;15.65;99.83;101867.13;4936905;28;20031;-81
2023/10/09 08:58:36;;;;;;;20.08;10.55;;;;;;;15.70;99.64;101884.44;4935953;29;20028;-81
2023/10/09 09:01:02;;;;;;;21.73;10.13;;;;;;;15.77;99.67;101901.72;4953133;28;20046;-81
2023/10/09 09:03:37;;;;;;;16.23;10.10;;;;;;;15.85;99.21;101914.63;4954268;28;20039;-81
2023/10/09 09:06:05;;;;;;;18.02;10.50;;;;;;;15.90;99.46;101920.56;4954712;28;20039;-81
2023/10/09 09:08:36;;;;;;;18.70;10.43;;;;;;;15.97;99.65;101930.88;4954933;28;20110;-81
2023/10/09 09:11:11;;;;;;;14.15;8.93;;;;;;;16.05;98.25;101934.16;4950058;28;20468;-81
2023/10/09 09:13:48;;;;;;;17.38;10.52;;;;;;;16.12;98.83;101922.53;4940095;28;20030;-82
2023/10/09 09:16:16;;;;;;;17.60;10.30;;;;;;;16.18;98.63;101924.97;4953848;29;20038;-82
2023/10/09 09:21:40;;;;;;;18.48;10.82;;;;;;;16.34;97.49;101932.34;4947652;28;20502;-81
2023/10/09 09:24:26;;;;;;;16.60;10.18;;;;;;;16.41;98.31;101931.22;4939819;29;20027;-81
2023/10/09 09:27:00;;;;;;;19.25;9.85;;;;;;;16.46;97.44;101931.94;4954191;28;20031;-81
2023/10/09 09:29:38;;;;;;;20.85;10.77;;;;;;;16.51;97.17;101927.41;4953542;28;20051;-81
2023/10/09 09:32:20;;;;;;;19.45;10.10;;;;;;;16.54;96.80;101924.69;4952031;29;20074;-82
2023/10/09 09:35:04;;;;;;;20.30;10.32;;;;;;;16.60;97.25;101926.22;4942811;29;20376;-82
2023/10/09 09:37:51;;;;;;;18.63;10.80;;;;;;;16.65;96.48;101934.78;4953701;29;20023;-81
2023/10/09 09:40:29;;;;;;;17.95;11.15;;;;;;;16.69;95.55;101944.28;4936951;29;20090;-81
2023/10/09 09:43:05;;;;;;;18.63;11.02;;;;;;;16.72;95.74;101945.97;4935275;29;20066;-81
2023/10/09 09:45:38;;;;;;;19.63;11.20;;;;;;;16.75;95.38;101956.38;4938291;29;20147;-81
2023/10/09 09:48:09;;;;;;;17.77;10.60;;;;;;;16.79;95.57;101957.13;4953189;29;20116;-81
2023/10/09 09:50:43;;;;;;;14.45;9.45;;;;;;;16.81;95.34;101948.28;4954214;28;20023;-81
2023/10/09 09:53:14;;;;;;;15.95;10.43;;;;;;;16.86;95.60;101947.28;4952930;28;20475;-81
2023/10/09 09:55:51;;;;;;;20.98;10.63;;;;;;;16.90;95.03;101949.72;4939456;28;20106;-82
2023/10/09 09:58:20;;;;;;;18.73;10.85;;;;;;;16.94;95.17;101947.84;4952939;29;20086;-82
2023/10/09 10:00:52;;;;;;;18.77;11.00;;;;;;;16.97;94.55;101946.03;4949810;28;20032;-82
2023/10/09 10:03:26;;;;;;;16.55;10.82;;;;;;;17.02;95.13;101943.22;4945651;28;20023;-82
2023/10/09 10:05:56;;;;;;;17.52;10.85;;;;;;;17.08;94.33;101953.50;4942434;29;20022;-82
2023/10/09 10:08:30;;;;;;;20.48;10.60;;;;;;;17.13;94.12;101950.75;4948866;28;20091;-82
2023/10/09 10:10:58;;;;;;;16.73;11.18;;;;;;;17.20;94.62;101951.38;4953787;28;20034;-82
2023/10/09 10:13:41;;;;;;;18.20;11.30;;;;;;;17.26;94.16;101954.63;4953124;28;20031;-82
2023/10/09 10:18:59;;;;;;;19.40;11.57;;;;;;;17.34;93.42;101954.34;4950280;28;20491;-82
2023/10/09 10:24:05;;;;;;;15.95;11.52;;;;;;;17.40;93.50;101948.88;4951838;28;20051;-82
2023/10/09 10:26:33;;;;;;;19.00;10.88;;;;;;;17.44;94.02;101953.09;4946023;28;20587;-82
2023/10/09 10:29:34;;;;;;;17.10;11.30;;;;;;;17.48;93.51;101948.59;4943674;29;20467;-82
2023/10/09 10:32:10;;;;;;;19.38;11.00;;;;;;;17.52;93.35;101946.69;4953473;28;20510;-82
2023/10/09 10:34:57;;;;;;;18.65;10.95;;;;;;;17.58;93.45;101954.38;4952471;28;20027;-82
2023/10/09 10:37:50;;;;;;;18.33;11.02;;;;;;;17.64;92.98;101954.13;4952297;28;20062;-82
2023/10/09 10:43:31;;;;;;;18.08;10.93;;;;;;;17.73;92.18;101960.81;4941616;29;20047;-83
2023/10/09 10:46:24;;;;;;;19.50;10.82;;;;;;;17.77;92.14;101956.28;4952279;29;20403;-81
2023/10/09 10:49:40;;;;;;;18.10;10.93;;;;;;;17.79;92.03;101943.94;4953124;28;20372;-82
2023/10/09 10:51:39;;;;;;;17.98;11.18;;;;;;;17.82;91.51;101947.31;4933967;29;20082;-82
2023/10/09 10:56:51;;;;;;;20.58;10.60;;;;;;;17.89;91.61;101955.84;4949301;28;20097;-83
2023/10/09 10:59:26;;;;;;;22.30;11.73;;;;;;;17.90;91.02;101954.91;4955909;28;20542;-82
2023/10/09 11:07:06;;;;;;;17.40;10.98;;;;;;;17.99;91.45;101956.38;4944069;29;20047;-81
2023/10/09 11:15:37;;;;;;;19.20;11.10;;;;;;;18.10;91.99;101950.69;4946245;29;20023;-82
2023/10/09 11:28:57;;;;;;;20.00;10.73;;;;;;;18.38;90.96;101942.50;4948797;29;20035;-82
2023/10/09 11:31:23;;;;;;;16.92;10.65;;;;;;;18.45;90.31;101936.06;4947473;29;20487;-82
2023/10/09 11:33:51;;;;;;;17.65;10.48;;;;;;;18.53;89.98;101945.44;4950525;28;20070;-82
2023/10/09 11:36:32;;;;;;;16.00;9.82;;;;;;;18.61;89.82;101940.69;4937540;29;20042;-82
2023/10/09 11:39:17;;;;;;;16.80;10.40;;;;;;;18.65;87.95;101945.75;4937770;29;20379;-82
2023/10/09 11:41:44;;;;;;;14.73;8.90;;;;;;;18.72;88.29;101945.50;4950091;29;20051;-80
2023/10/09 11:44:19;;;;;;;15.98;9.60;;;;;;;18.75;87.06;101951.50;4947726;28;21387;-82
2023/10/09 11:52:35;;;;;;;14.77;8.82;;;;;;;18.88;87.43;101946.56;4940262;28;20043;-82
2023/10/09 11:55:02;;;;;;;13.68;8.45;;;;;;;18.88;87.55;101940.41;4946156;29;20054;-81
2023/10/09 11:57:31;;;;;;;14.00;7.72;;;;;;;18.89;87.16;101943.00;4941557;29;20038;-82
2023/10/09 11:59:59;;;;;;;13.60;8.35;;;;;;;18.90;86.67;101950.00;4955055;28;20031;-82
2023/10/09 12:02:25;;;;;;;14.82;8.23;;;;;;;18.88;86.91;101951.84;4942648;28;20467;-82
2023/10/09 12:04:50;;;;;;;12.90;8.00;;;;;;;18.87;86.66;101947.47;4938098;29;20052;-79
2023/10/09 12:07:15;;;;;;;13.65;7.65;;;;;;;18.87;88.15;101939.56;4944891;28;20031;-80
2023/10/09 12:09:40;;;;;;;12.77;6.93;;;;;;;18.90;87.44;101951.75;4944782;29;20042;-82
2023/10/09 12:12:08;;;;;;;15.35;7.63;;;;;;;18.91;87.48;101951.72;4937100;29;20042;-82
2023/10/09 12:14:34;;;;;;;13.55;7.05;;;;;;;18.91;87.39;101941.16;4944138;29;20023;-82
2023/10/09 12:17:09;;;;;;;12.30;6.85;;;;;;;18.92;87.82;101944.63;4940355;28;20122;-82
2023/10/09 12:19:38;;;;;;;13.90;6.97;;;;;;;18.93;87.33;101944.59;4937755;29;20023;-82
2023/10/09 12:22:10;;;;;;;11.63;6.90;;;;;;;18.92;86.84;101942.88;4949005;29;20529;-82
2023/10/09 12:24:36;;;;;;;12.02;6.30;;;;;;;18.93;87.10;101928.78;4951329;29;20027;-81
2023/10/09 12:27:01;;;;;;;11.40;5.63;;;;;;;18.98;86.97;101935.63;4941498;28;20117;-82
2023/10/09 12:29:32;;;;;;;10.90;5.53;;;;;;;19.00;87.86;101928.50;4946471;29;20106;-82
2023/10/09 12:31:58;;;;;;;12.50;6.25;;;;;;;19.04;87.90;101927.47;4954163;28;20043;-82
2023/10/09 12:34:26;;;;;;;12.15;6.03;;;;;;;19.07;86.55;101932.59;4939322;29;20031;-82
2023/10/09 12:36:53;;;;;;;12.73;5.90;;;;;;;19.11;87.31;101923.63;4945787;29;20106;-82
2023/10/09 12:39:18;;;;;;;11.38;6.22;;;;;;;19.14;87.55;101920.00;4938501;28;20019;-80
2023/10/09 12:41:44;;;;;;;13.40;6.30;;;;;;;19.18;87.37;101921.59;4940339;29;20027;-82
2023/10/09 12:44:18;;;;;;;16.42;6.30;;;;;;;19.21;87.26;101921.44;4945413;28;20063;-82
2023/10/09 12:46:53;;;;;;;10.35;5.93;;;;;;;19.23;87.07;101917.81;4936567;29;20387;-82
2023/10/09 12:49:27;;;;;;;11.85;6.03;;;;;;;19.29;87.54;101907.91;4955087;29;20039;-82
2023/10/09 12:51:53;;;;;;;15.18;5.72;;;;;;;19.33;86.15;101904.19;4954048;28;20051;-82
2023/10/09 12:54:27;;;;;;;10.60;6.18;;;;;;;19.36;85.30;101898.78;4952147;28;20443;-82
2023/10/09 12:56:52;;;;;;;10.23;5.50;;;;;;;19.38;85.37;101896.91;4936310;29;20056;-82
2023/10/09 12:59:19;;;;;;;18.13;6.22;;;;;;;19.40;84.97;101900.34;4942948;29;20027;-82
2023/10/09 13:01:45;;;;;;;10.88;5.97;;;;;;;19.44;84.85;101888.72;4953158;29;20019;-82
2023/10/09 13:04:12;;;;;;;9.75;5.35;;;;;;;19.52;84.03;101889.22;4950625;28;20027;-82
2023/10/09 13:06:43;;;;;;;12.35;5.60;;;;;;;19.59;84.16;101896.84;4969642;28;20053;-82
2023/10/09 13:09:15;;;;;;;11.60;5.78;;;;;;;19.66;84.74;101892.97;4967809;28;20460;-82
2023/10/09 13:11:42;;;;;;;12.27;5.75;;;;;;;19.71;83.60;101885.69;4944764;28;20028;-82
2023/10/09 13:14:17;;;;;;;12.27;5.60;;;;;;;19.75;83.48;101875.84;4936571;29;20023;-82
2023/10/09 13:16:45;;;;;;;10.75;5.55;;;;;;;19.78;82.43;101883.63;4953296;29;20159;-83
2023/10/09 13:19:10;;;;;;;10.15;5.40;;;;;;;19.80;81.60;101887.91;4954439;28;20019;-82
2023/10/09 13:21:40;;;;;;;9.95;5.50;;;;;;;19.81;81.19;101899.31;4954536;28;20498;-80
2023/10/09 13:24:12;;;;;;;10.00;5.30;;;;;;;19.83;81.64;101895.66;4937108;29;20128;-80
2023/10/09 13:26:38;;;;;;;11.75;5.55;;;;;;;19.82;81.57;101896.59;4936740;29;20028;-80
2023/10/09 13:29:08;;;;;;;8.43;4.80;;;;;;;19.79;81.44;101891.47;4936458;29;20068;-80
2023/10/09 13:31:37;;;;;;;15.30;5.75;;;;;;;19.79;81.64;101902.03;4950881;29;20057;-80
2023/10/09 13:34:06;;;;;;;10.50;5.22;;;;;;;19.79;81.15;101911.72;4937935;29;20027;-80
2023/10/09 13:36:31;;;;;;;18.42;5.50;;;;;;;19.78;81.06;101912.66;4938374;29;20036;-81
2023/10/09 13:39:22;;;;;;;10.65;5.03;;;;;;;19.75;81.45;101912.81;4937714;28;20035;-82
2023/10/09 13:41:50;;;;;;;10.05;4.97;;;;;;;19.75;80.88;101916.31;4940923;29;20030;-81
2023/10/09 13:44:16;;;;;;;9.88;4.60;;;;;;;19.72;80.50;101911.19;4939909;28;20032;-81
2023/10/09 13:46:41;;;;;;;6.88;4.68;;;;;;;19.72;80.31;101911.19;4943398;29;20476;-81
2023/10/09 13:49:14;;;;;;;8.63;4.90;;;;;;;19.73;80.73;101907.59;4935511;29;20027;-81
2023/10/09 13:51:45;;;;;;;9.40;4.78;;;;;;;19.78;81.20;101910.91;4951927;28;20035;-81
2023/10/09 13:54:20;;;;;;;8.48;4.57;;;;;;;19.82;80.61;101912.44;4947739;28;20031;-81
2023/10/09 13:56:52;;;;;;;9.25;4.60;;;;;;;19.89;80.46;101912.19;4951442;29;20027;-82
2023/10/09 13:59:20;;;;;;;10.38;4.20;;;;;;;19.95;80.79;101923.31;4952618;28;20026;-81
2023/10/09 14:01:47;;;;;;;9.18;4.50;;;;;;;19.98;80.47;101928.44;4943875;28;20495;-81
2023/10/09 14:04:18;;;;;;;10.68;4.47;;;;;;;20.00;79.18;101920.44;4942316;28;20031;-81
2023/10/09 14:06:44;;;;;;;7.07;4.13;;;;;;;20.01;78.87;101916.88;4945872;28;20058;-82
2023/10/09 14:09:10;;;;;;;9.30;4.28;;;;;;;20.01;79.02;101922.16;4949971;29;20038;-82
2023/10/09 14:11:37;;;;;;;8.23;4.07;;;;;;;20.03;77.52;101920.28;4943730;28;20028;-80
2023/10/09 14:14:03;;;;;;;6.35;3.85;;;;;;;20.02;77.38;101916.81;4950002;29;20023;-80
2023/10/09 14:16:32;;;;;;;7.70;3.65;;;;;;;20.05;76.99;101917.59;4942117;29;20376;-80
2023/10/09 14:18:59;;;;;;;8.50;4.03;;;;;;;20.08;77.63;101907.72;4938308;29;20396;-80
2023/10/09 14:21:25;;;;;;;10.70;4.13;;;;;;;20.11;76.88;101902.28;4934821;29;20027;-79